createdAt,value
2022-09-23T00:00:59.882Z,14.17
2022-09-23T00:03:28.816Z,14.93
2022-09-23T00:05:59.513Z,13.77
2022-09-23T00:08:26.141Z,19.57
2022-09-23T00:10:52.550Z,13.20
2022-09-23T00:13:19.072Z,13.70
2022-09-23T00:15:46.728Z,16.20
2022-09-23T00:18:13.394Z,13.97
2022-09-23T00:20:40.468Z,12.07
2022-09-23T00:23:06.926Z,11.90
2022-09-23T00:25:33.871Z,12.73
2022-09-23T00:28:00.382Z,13.90
2022-09-23T00:30:27.376Z,13.60
2022-09-23T00:32:54.058Z,13.87
2022-09-23T00:35:20.629Z,14.97
2022-09-23T00:37:47.080Z,15.97
2022-09-23T00:40:13.636Z,17.20
2022-09-23T00:42:52.562Z,14.10
2022-09-23T00:45:19.477Z,17.43
2022-09-23T00:47:55.196Z,16.80
2022-09-23T00:50:27.424Z,16.20
2022-09-23T00:52:56.795Z,14.17
2022-09-23T00:55:27.632Z,15.57
2022-09-23T00:57:57.033Z,14.07
2022-09-23T01:00:23.745Z,13.97
2022-09-23T01:02:51.277Z,15.50
2022-09-23T01:05:18.809Z,18.67
2022-09-23T01:07:46.046Z,16.43
2022-09-23T01:10:14.664Z,13.10
2022-09-23T01:13:11.023Z,19.67
2022-09-23T01:15:48.773Z,14.63
2022-09-23T01:18:43.543Z,13.33
2022-09-23T01:21:22.673Z,15.30
2022-09-23T01:24:03.131Z,18.03
2022-09-23T01:26:54.598Z,20.87
2022-09-23T01:29:29.903Z,15.53
2022-09-23T01:32:19.596Z,20.10
2022-09-23T01:34:51.020Z,17.77
2022-09-23T01:37:38.206Z,20.33
2022-09-23T01:40:15.503Z,16.83
2022-09-23T01:42:42.813Z,18.00
2022-09-23T01:45:20.426Z,17.63
2022-09-23T01:48:04.899Z,17.93
2022-09-23T01:50:54.174Z,20.70
2022-09-23T01:53:49.606Z,19.23
2022-09-23T01:56:31.327Z,23.90
2022-09-23T01:59:04.233Z,18.50
2022-09-23T02:01:39.341Z,15.50
2022-09-23T02:04:13.378Z,18.97
2022-09-23T02:06:43.382Z,15.47
2022-09-23T02:09:12.921Z,16.97
2022-09-23T02:11:42.988Z,20.90
2022-09-23T02:14:18.968Z,17.30
2022-09-23T02:16:48.692Z,19.97
2022-09-23T02:19:28.369Z,17.97
2022-09-23T02:22:06.944Z,22.77
2022-09-23T02:24:35.026Z,19.33
2022-09-23T02:27:19.719Z,19.43
2022-09-23T02:29:55.550Z,20.77
2022-09-23T02:32:54.449Z,18.27
2022-09-23T02:35:29.458Z,15.63
2022-09-23T02:38:35.040Z,16.63
2022-09-23T02:41:15.082Z,16.90
2022-09-23T02:43:59.750Z,16.80
2022-09-23T02:46:26.915Z,19.17
2022-09-23T02:48:56.818Z,18.07
2022-09-23T02:51:25.727Z,16.17
2022-09-23T02:53:57.117Z,17.17
2022-09-23T02:56:23.658Z,19.47
2022-09-23T02:58:52.337Z,19.13
2022-09-23T03:01:39.321Z,15.03
2022-09-23T03:04:17.236Z,22.57
2022-09-23T03:07:06.740Z,18.10
2022-09-23T03:09:57.361Z,17.23
2022-09-23T03:12:36.419Z,19.37
2022-09-23T03:15:12.358Z,20.17
2022-09-23T03:17:46.913Z,16.80
2022-09-23T03:20:23.466Z,20.73
2022-09-23T03:22:53.956Z,20.37
2022-09-23T03:25:23.897Z,22.27
2022-09-23T03:27:50.637Z,18.93
2022-09-23T03:30:18.199Z,18.27
2022-09-23T03:32:45.637Z,17.37
2022-09-23T03:35:13.098Z,18.23
2022-09-23T03:37:43.220Z,20.57
2022-09-23T03:40:25.525Z,20.53
2022-09-23T03:42:53.985Z,21.93
2022-09-23T03:45:23.748Z,21.87
2022-09-23T03:47:50.216Z,20.10
2022-09-23T03:50:17.312Z,23.17
2022-09-23T03:52:44.464Z,32.03
2022-09-23T03:55:11.274Z,22.53
2022-09-23T03:57:38.034Z,28.53
2022-09-23T04:00:06.850Z,112.10
2022-09-23T04:02:33.800Z,52.73
2022-09-23T04:05:01.116Z,15.53
2022-09-23T04:07:27.630Z,19.70
2022-09-23T04:09:54.296Z,57.20
2022-09-23T04:12:20.716Z,59.93
2022-09-23T04:14:47.248Z,82.73
2022-09-23T04:17:13.973Z,44.77
2022-09-23T04:19:40.868Z,19.47
2022-09-23T04:22:08.009Z,80.30
2022-09-23T04:24:34.568Z,56.60
2022-09-23T04:27:01.090Z,70.93
2022-09-23T04:29:27.641Z,87.83
2022-09-23T04:31:54.520Z,77.77
2022-09-23T04:34:21.596Z,39.73
2022-09-23T04:36:48.894Z,29.43
2022-09-23T04:39:16.070Z,25.30
2022-09-23T04:41:43.572Z,41.07
2022-09-23T04:44:14.585Z,59.97
2022-09-23T04:46:41.884Z,46.57
2022-09-23T04:49:08.651Z,76.10
2022-09-23T04:51:35.239Z,101.10
2022-09-23T04:54:01.782Z,23.87
2022-09-23T04:56:29.743Z,102.77
2022-09-23T04:59:01.720Z,115.80
2022-09-23T05:01:31.009Z,86.07
2022-09-23T05:04:03.169Z,24.27
2022-09-23T05:06:31.548Z,51.43
2022-09-23T05:08:58.781Z,61.17
2022-09-23T05:11:26.088Z,69.17
2022-09-23T05:13:54.010Z,124.40
2022-09-23T05:16:22.734Z,38.40
2022-09-23T05:18:50.172Z,104.27
2022-09-23T05:21:18.302Z,22.03
2022-09-23T05:23:49.288Z,90.33
2022-09-23T05:26:16.120Z,49.73
2022-09-23T05:28:42.701Z,68.30
2022-09-23T05:31:20.024Z,62.13
2022-09-23T05:33:49.965Z,94.47
2022-09-23T05:36:19.910Z,73.77
2022-09-23T05:38:46.441Z,48.73
2022-09-23T05:41:13.920Z,62.53
2022-09-23T05:43:41.124Z,19.33
2022-09-23T05:46:16.041Z,45.13
2022-09-23T05:48:43.210Z,30.97
2022-09-23T05:51:13.965Z,23.43
2022-09-23T05:53:41.002Z,31.10
2022-09-23T05:56:07.932Z,32.70
2022-09-23T05:58:34.688Z,18.10
2022-09-23T06:01:01.189Z,20.07
2022-09-23T06:03:27.651Z,20.87
2022-09-23T06:05:55.029Z,20.37
2022-09-23T06:08:23.560Z,14.87
2022-09-23T06:10:54.456Z,14.43
2022-09-23T06:13:21.364Z,15.83
2022-09-23T06:15:48.012Z,21.77
2022-09-23T06:18:14.571Z,17.20
2022-09-23T06:20:41.027Z,17.63
2022-09-23T06:23:10.607Z,20.57
2022-09-23T06:25:40.783Z,17.17
2022-09-23T06:28:12.228Z,19.67
2022-09-23T06:30:42.544Z,18.37
2022-09-23T06:33:10.095Z,22.73
2022-09-23T06:35:36.602Z,20.70
2022-09-23T06:38:04.995Z,21.83
2022-09-23T06:40:31.672Z,25.03
2022-09-23T06:42:59.857Z,22.37
2022-09-23T06:45:27.297Z,23.47
2022-09-23T06:47:58.698Z,24.80
2022-09-23T06:50:26.472Z,24.17
2022-09-23T06:52:56.697Z,26.90
2022-09-23T06:55:24.646Z,20.37
2022-09-23T06:57:51.208Z,23.00
2022-09-23T07:00:18.176Z,28.93
2022-09-23T07:02:44.891Z,21.47
2022-09-23T07:05:11.749Z,22.53
2022-09-23T07:07:43.606Z,23.60
2022-09-23T07:10:11.498Z,26.63
2022-09-23T07:12:38.044Z,25.23
2022-09-23T07:15:04.894Z,30.20
2022-09-23T07:17:31.393Z,28.50
2022-09-23T07:20:00.555Z,27.77
2022-09-23T07:22:30.423Z,24.90
2022-09-23T07:25:01.248Z,25.00
2022-09-23T07:27:27.834Z,22.30
2022-09-23T07:29:55.193Z,20.07
2022-09-23T07:32:23.085Z,16.20
2022-09-23T07:34:50.104Z,19.63
2022-09-23T07:37:17.950Z,17.27
2022-09-23T07:39:45.450Z,17.13
2022-09-23T07:42:13.439Z,15.03
2022-09-23T07:44:47.817Z,18.30
2022-09-23T07:47:14.655Z,18.20
2022-09-23T07:49:41.534Z,18.17
2022-09-23T07:52:08.021Z,16.03
2022-09-23T07:54:34.912Z,13.03
2022-09-23T07:57:01.591Z,12.57
2022-09-23T07:59:28.158Z,14.90
2022-09-23T08:01:56.812Z,15.30
2022-09-23T08:04:26.682Z,15.70
2022-09-23T08:06:58.894Z,15.67
2022-09-23T08:09:28.474Z,12.23
2022-09-23T08:11:55.410Z,12.93
2022-09-23T08:14:22.499Z,15.50
2022-09-23T08:16:49.493Z,12.57
2022-09-23T08:19:16.721Z,13.90
2022-09-23T08:21:43.592Z,14.23
2022-09-23T08:24:14.666Z,14.33
2022-09-23T08:26:41.208Z,12.50
2022-09-23T08:29:10.163Z,14.47
2022-09-23T08:31:36.837Z,37.73
2022-09-23T08:34:04.843Z,13.00
2022-09-23T08:36:31.950Z,11.63
2022-09-23T08:38:58.409Z,10.67
2022-09-23T08:41:58.824Z,11.77
2022-09-23T08:44:44.400Z,14.03
2022-09-23T08:47:13.637Z,14.97
2022-09-23T08:49:45.743Z,14.47
2022-09-23T08:52:18.476Z,23.40
2022-09-23T08:54:44.930Z,17.10
2022-09-23T08:57:24.495Z,13.03
2022-09-23T08:59:51.198Z,11.30
2022-09-23T09:02:19.469Z,10.37
2022-09-23T09:04:49.909Z,9.63
2022-09-23T09:07:37.633Z,8.20
2022-09-23T09:10:20.591Z,9.27
2022-09-23T09:12:50.392Z,10.20
2022-09-23T09:15:24.852Z,8.80
2022-09-23T09:18:21.408Z,9.70
2022-09-23T09:21:00.753Z,10.03
2022-09-23T09:23:40.936Z,12.20
2022-09-23T09:26:11.744Z,7.87
2022-09-23T09:28:42.082Z,5.97
2022-09-23T09:31:45.109Z,8.27
2022-09-23T09:34:40.719Z,9.97
2022-09-23T09:37:13.716Z,3.13
2022-09-23T09:39:40.808Z,2.03
2022-09-23T09:42:07.562Z,2.50
2022-09-23T09:44:48.400Z,1.07
2022-09-23T09:47:28.639Z,1.23
2022-09-23T09:50:11.349Z,1.73
2022-09-23T09:52:44.071Z,1.43
2022-09-23T09:55:13.666Z,1.10
2022-09-23T09:58:06.192Z,1.57
2022-09-23T10:00:43.005Z,3.63
2022-09-23T10:03:15.140Z,0.97
2022-09-23T10:05:44.973Z,2.27
2022-09-23T10:08:27.347Z,1.83
2022-09-23T10:11:17.185Z,1.77
2022-09-23T10:14:12.850Z,1.33
2022-09-23T10:16:41.581Z,1.20
2022-09-23T10:19:22.734Z,0.80
2022-09-23T10:21:59.319Z,1.63
2022-09-23T10:24:30.101Z,1.10
2022-09-23T10:27:08.893Z,3.57
2022-09-23T10:29:45.869Z,1.10
2022-09-23T10:32:31.171Z,2.37
2022-09-23T10:35:04.637Z,1.60
2022-09-23T10:37:38.886Z,4.40
2022-09-23T10:40:34.581Z,1.20
2022-09-23T10:43:24.364Z,2.80
2022-09-23T10:46:09.537Z,2.80
2022-09-23T10:49:12.073Z,1.60
2022-09-23T10:51:57.128Z,1.07
2022-09-23T10:54:56.396Z,5.47
2022-09-23T10:57:38.159Z,2.27
2022-09-23T11:00:23.683Z,1.60
2022-09-23T11:03:21.353Z,1.37
2022-09-23T11:06:08.469Z,2.70
2022-09-23T11:08:40.986Z,1.30
2022-09-23T11:11:39.517Z,1.57
2022-09-23T11:14:22.956Z,1.87
2022-09-23T11:16:58.243Z,3.00
2022-09-23T11:19:56.630Z,2.37
2022-09-23T11:22:54.234Z,1.83
2022-09-23T11:25:43.533Z,1.33
2022-09-23T11:28:52.537Z,2.40
2022-09-23T11:31:37.608Z,3.37
2022-09-23T11:34:13.355Z,2.03
2022-09-23T11:36:43.714Z,1.37
2022-09-23T11:39:19.468Z,2.40
2022-09-23T11:41:46.646Z,2.20
2022-09-23T11:44:23.134Z,1.43
2022-09-23T11:47:19.573Z,1.10
2022-09-23T11:49:58.134Z,1.90
2022-09-23T11:52:24.666Z,2.50
2022-09-23T11:54:52.189Z,2.70
2022-09-23T11:57:43.560Z,0.90
2022-09-23T12:00:19.040Z,1.27
2022-09-23T12:03:05.721Z,2.30
2022-09-23T12:05:40.235Z,3.13
2022-09-23T12:08:15.753Z,2.17
2022-09-23T12:10:54.305Z,2.27
2022-09-23T12:13:42.062Z,2.37
2022-09-23T12:16:25.738Z,1.90
2022-09-23T12:19:18.333Z,1.80
2022-09-23T12:22:24.157Z,2.27
2022-09-23T12:25:14.283Z,4.47
2022-09-23T12:27:45.798Z,1.93
2022-09-23T12:30:20.033Z,1.50
2022-09-23T12:32:46.854Z,2.70
2022-09-23T12:35:35.752Z,3.07
2022-09-23T12:38:05.181Z,2.47
2022-09-23T12:40:34.983Z,3.17
2022-09-23T12:43:04.974Z,1.97
2022-09-23T12:45:35.003Z,1.40
2022-09-23T12:48:05.042Z,2.57
2022-09-23T12:51:03.863Z,3.97
2022-09-23T12:53:33.643Z,2.37
2022-09-23T12:56:02.256Z,1.77
2022-09-23T12:58:57.593Z,1.50
2022-09-23T13:01:25.943Z,2.23
2022-09-23T13:04:13.287Z,1.43
2022-09-23T13:06:42.104Z,2.90
2022-09-23T13:09:15.017Z,2.87
2022-09-23T13:11:43.608Z,2.00
2022-09-23T13:14:13.360Z,4.47
2022-09-23T13:16:43.951Z,1.77
2022-09-23T13:19:35.385Z,1.97
2022-09-23T13:22:09.096Z,1.43
2022-09-23T13:24:47.637Z,2.43
2022-09-23T13:27:33.584Z,3.40
2022-09-23T13:30:04.848Z,3.43
2022-09-23T13:32:35.174Z,1.23
2022-09-23T13:35:24.375Z,3.60
2022-09-23T13:37:50.871Z,5.97
2022-09-23T13:40:19.558Z,2.33
2022-09-23T13:42:59.877Z,2.20
2022-09-23T13:45:28.012Z,3.20
2022-09-23T13:48:00.515Z,2.70
2022-09-23T13:50:29.519Z,3.53
2022-09-23T13:53:01.455Z,4.00
2022-09-23T13:55:37.365Z,1.87
2022-09-23T13:58:20.521Z,4.53
2022-09-23T14:00:48.031Z,2.10
2022-09-23T14:03:45.545Z,2.80
2022-09-23T14:06:17.144Z,6.30
2022-09-23T14:08:50.394Z,1.77
2022-09-23T14:11:18.619Z,2.10
2022-09-23T14:13:47.085Z,2.20
2022-09-23T14:16:17.302Z,3.43
2022-09-23T14:18:49.629Z,3.60
2022-09-23T14:21:36.396Z,10.50
2022-09-23T14:24:30.979Z,9.53
2022-09-23T14:27:06.386Z,4.10
2022-09-23T14:29:38.089Z,1.70
2022-09-23T14:32:21.339Z,3.77
2022-09-23T14:35:00.936Z,3.17
2022-09-23T14:37:53.556Z,6.13
2022-09-23T14:40:27.467Z,5.43
2022-09-23T14:43:27.963Z,3.07
2022-09-23T14:45:56.567Z,4.03
2022-09-23T14:48:28.729Z,5.60
2022-09-23T14:50:58.122Z,3.80
2022-09-23T14:53:41.397Z,2.10
2022-09-23T14:56:11.480Z,3.87
2022-09-23T14:58:57.811Z,3.83
2022-09-23T15:01:45.811Z,3.57
2022-09-23T15:04:17.006Z,2.07
2022-09-23T15:06:48.396Z,1.77
2022-09-23T15:09:26.896Z,3.83
2022-09-23T15:11:58.665Z,3.40
2022-09-23T15:14:38.189Z,5.53
2022-09-23T15:17:11.559Z,2.70
2022-09-23T15:19:38.178Z,2.17
2022-09-23T15:22:07.601Z,3.37
2022-09-23T15:24:36.618Z,3.73
2022-09-23T15:27:10.795Z,2.30
2022-09-23T15:29:37.408Z,4.57
2022-09-23T15:32:06.571Z,3.60
2022-09-23T15:34:33.291Z,2.33
2022-09-23T15:36:59.751Z,2.93
2022-09-23T15:39:35.496Z,3.47
2022-09-23T15:42:03.001Z,2.67
2022-09-23T15:44:29.937Z,5.43
2022-09-23T15:46:59.169Z,2.90
2022-09-23T15:49:29.871Z,2.83
2022-09-23T15:51:59.307Z,4.47
2022-09-23T15:54:25.747Z,4.23
2022-09-23T15:56:52.355Z,8.63
2022-09-23T15:59:19.141Z,5.93
2022-09-23T16:01:45.983Z,6.23
2022-09-23T16:04:15.620Z,4.37
2022-09-23T16:06:44.480Z,6.80
2022-09-23T16:09:13.355Z,4.77
2022-09-23T16:11:44.391Z,9.13
2022-09-23T16:14:13.884Z,6.97
2022-09-23T16:16:42.422Z,6.83
2022-09-23T16:19:09.032Z,9.60
2022-09-23T16:21:35.523Z,10.00
2022-09-23T16:24:03.531Z,21.27
2022-09-23T16:26:31.972Z,11.57
2022-09-23T16:28:59.546Z,4.33
2022-09-23T16:31:29.537Z,5.90
2022-09-23T16:33:56.586Z,5.77
2022-09-23T16:36:31.815Z,7.13
2022-09-23T16:38:59.962Z,8.00
2022-09-23T16:41:33.862Z,10.57
2022-09-23T16:44:02.805Z,9.73
2022-09-23T16:46:29.745Z,10.23
2022-09-23T16:48:57.582Z,11.27
2022-09-23T16:51:33.286Z,9.13
2022-09-23T16:54:00.041Z,7.67
2022-09-23T16:56:29.055Z,9.33
2022-09-23T16:58:56.143Z,6.40
2022-09-23T17:01:46.710Z,6.47
2022-09-23T17:04:14.518Z,8.40
2022-09-23T17:06:50.067Z,5.30
2022-09-23T17:09:18.816Z,8.27
2022-09-23T17:11:47.758Z,5.27
2022-09-23T17:14:15.605Z,10.17
2022-09-23T17:16:42.265Z,8.97
2022-09-23T17:19:11.514Z,12.60
2022-09-23T17:21:38.037Z,12.50
2022-09-23T17:24:05.029Z,6.73
2022-09-23T17:26:31.569Z,10.80
2022-09-23T17:28:59.372Z,9.53
2022-09-23T17:31:26.105Z,7.63
2022-09-23T17:33:53.050Z,7.83
2022-09-23T17:36:20.133Z,8.60
2022-09-23T17:38:48.188Z,14.13
2022-09-23T17:41:15.325Z,12.10
2022-09-23T17:43:41.937Z,13.87
2022-09-23T17:46:10.682Z,14.70
2022-09-23T17:48:39.365Z,13.40
2022-09-23T17:51:08.342Z,15.67
2022-09-23T17:53:37.209Z,14.70
2022-09-23T17:56:16.832Z,13.90
2022-09-23T17:58:44.121Z,19.90
2022-09-23T18:01:19.543Z,18.17
2022-09-23T18:03:47.413Z,19.53
2022-09-23T18:06:17.580Z,32.17
2022-09-23T18:08:45.659Z,29.23
2022-09-23T18:11:19.801Z,30.13
2022-09-23T18:13:54.126Z,32.60
2022-09-23T18:16:22.487Z,38.50
2022-09-23T18:18:53.183Z,40.30
2022-09-23T18:21:20.827Z,33.40
2022-09-23T18:23:47.748Z,30.33
2022-09-23T18:26:19.630Z,48.77
2022-09-23T18:28:46.287Z,31.73
2022-09-23T18:31:13.435Z,19.57
2022-09-23T18:33:40.072Z,19.73
2022-09-23T18:36:07.860Z,16.47
2022-09-23T18:38:34.721Z,14.43
2022-09-23T18:41:01.646Z,14.10
2022-09-23T18:43:39.393Z,15.17
2022-09-23T18:46:11.732Z,16.00
2022-09-23T18:48:56.876Z,12.47
2022-09-23T18:51:25.747Z,16.50
2022-09-23T18:53:57.472Z,11.83
2022-09-23T18:56:29.712Z,13.37
2022-09-23T18:58:56.298Z,13.00
2022-09-23T19:01:23.754Z,12.40
2022-09-23T19:03:57.032Z,12.80
2022-09-23T19:06:24.457Z,12.90
2022-09-23T19:08:52.489Z,12.90
2022-09-23T19:11:19.552Z,14.20
2022-09-23T19:13:46.317Z,11.37
2022-09-23T19:16:14.983Z,10.80
2022-09-23T19:18:43.505Z,12.73
2022-09-23T19:21:12.727Z,11.43
2022-09-23T19:23:40.037Z,11.30
2022-09-23T19:26:11.233Z,10.97
2022-09-23T19:28:37.921Z,13.30
2022-09-23T19:31:11.897Z,9.60
2022-09-23T19:33:41.138Z,12.57
2022-09-23T19:36:10.691Z,10.90
2022-09-23T19:38:38.336Z,12.10
2022-09-23T19:41:07.851Z,7.90
2022-09-23T19:43:37.842Z,12.07
2022-09-23T19:46:05.653Z,11.50
2022-09-23T19:48:32.371Z,11.33
2022-09-23T19:50:59.020Z,12.67
2022-09-23T19:53:28.152Z,13.80
2022-09-23T19:55:56.075Z,10.50
2022-09-23T19:58:23.177Z,9.67
2022-09-23T20:00:49.660Z,9.83
2022-09-23T20:03:17.632Z,8.87
2022-09-23T20:05:44.060Z,10.47
2022-09-23T20:08:10.492Z,11.10
2022-09-23T20:10:39.378Z,9.73
2022-09-23T20:13:05.830Z,8.87
2022-09-23T20:15:32.364Z,16.57
2022-09-23T20:17:58.765Z,12.00
2022-09-23T20:20:25.159Z,13.30
2022-09-23T20:22:54.282Z,11.67
2022-09-23T20:25:20.938Z,9.27
2022-09-23T20:27:53.320Z,10.30
2022-09-23T20:30:20.700Z,11.97
2022-09-23T20:32:50.768Z,9.37
2022-09-23T20:35:17.180Z,10.70
2022-09-23T20:37:44.637Z,14.77
2022-09-23T20:40:11.147Z,23.10
2022-09-23T20:42:37.907Z,28.20
2022-09-23T20:45:06.815Z,27.37
2022-09-23T20:47:33.346Z,21.13
2022-09-23T20:49:59.847Z,20.53
2022-09-23T20:52:26.370Z,26.43
2022-09-23T20:54:52.940Z,20.70
2022-09-23T20:57:20.295Z,20.97
2022-09-23T20:59:46.848Z,24.23
2022-09-23T21:02:13.316Z,21.00
2022-09-23T21:04:39.936Z,21.80
2022-09-23T21:07:07.210Z,20.97
2022-09-23T21:09:33.740Z,20.97
2022-09-23T21:12:00.154Z,23.50
2022-09-23T21:14:26.742Z,19.93
2022-09-23T21:16:55.230Z,22.03
2022-09-23T21:19:21.714Z,17.97
2022-09-23T21:21:48.243Z,23.53
2022-09-23T21:27:04.374Z,21.50
2022-09-23T21:29:30.817Z,16.97
2022-09-23T21:31:57.496Z,21.43
2022-09-23T21:34:28.173Z,20.63
2022-09-23T21:36:56.624Z,20.40
2022-09-23T21:39:23.336Z,26.73
2022-09-23T21:41:51.229Z,34.70
2022-09-23T21:44:17.856Z,38.80
2022-09-23T21:46:44.355Z,35.50
2022-09-23T21:49:11.238Z,35.03
2022-09-23T21:51:41.036Z,36.03
2022-09-23T21:54:11.969Z,36.27
2022-09-23T21:56:38.429Z,34.30
2022-09-23T21:59:05.696Z,35.00
2022-09-23T22:01:37.622Z,30.07
2022-09-23T22:04:10.151Z,32.77
2022-09-23T22:06:38.276Z,42.07
2022-09-23T22:09:09.987Z,40.40
2022-09-23T22:11:56.819Z,36.27
2022-09-23T22:14:27.503Z,40.93
2022-09-23T22:16:59.124Z,37.20
2022-09-23T22:19:27.908Z,35.10
2022-09-23T22:21:56.166Z,32.87
2022-09-23T22:24:22.764Z,33.87
2022-09-23T22:26:49.231Z,31.03
2022-09-23T22:29:34.847Z,32.10
2022-09-23T22:32:21.425Z,35.90
2022-09-23T22:34:52.541Z,31.90
2022-09-23T22:37:21.337Z,33.10
2022-09-23T22:39:47.763Z,28.17
2022-09-23T22:42:14.347Z,36.57
2022-09-23T22:44:40.891Z,33.43
2022-09-23T22:47:08.017Z,30.37
2022-09-23T22:49:34.917Z,28.83
2022-09-23T22:52:03.106Z,34.47
2022-09-23T22:54:33.749Z,30.17
2022-09-23T22:57:05.114Z,29.17
2022-09-23T22:59:31.804Z,31.40
2022-09-23T23:01:59.729Z,29.77
2022-09-23T23:04:26.976Z,31.30
2022-09-23T23:06:53.951Z,29.53
2022-09-23T23:09:20.425Z,31.07
2022-09-23T23:11:47.264Z,26.97
2022-09-23T23:14:16.140Z,34.90
2022-09-23T23:16:43.265Z,32.43
2022-09-23T23:19:13.489Z,30.07
2022-09-23T23:21:43.382Z,32.43
2022-09-23T23:24:17.838Z,29.67
2022-09-23T23:26:45.117Z,31.47
2022-09-23T23:29:13.147Z,32.63
2022-09-23T23:31:39.950Z,35.57
2022-09-23T23:34:08.360Z,34.20
2022-09-23T23:36:34.899Z,33.27
2022-09-23T23:39:01.462Z,35.90
2022-09-23T23:41:28.331Z,42.67
2022-09-23T23:43:56.682Z,33.67
2022-09-23T23:46:25.432Z,35.00
2022-09-23T23:48:52.367Z,30.03
2022-09-23T23:51:18.937Z,32.73
2022-09-23T23:53:45.457Z,32.30
2022-09-23T23:56:14.661Z,31.97
2022-09-23T23:58:41.363Z,33.73
